Main page
METAR-TAF:

METAR-TAF

Airports :

Pickle Lake Airport

Pickle Lake, Ontario, Canada

latitude: 51-27N, longitude: 090-12W, elevation: 386 m

Current weather observation

The report was made 1 hour and 6 minutes ago, at 19:00 UTC
Wind 9 kt from the South/Southeast with gusts up to 18 kt
Temperature -4°C
Humidity 68%
Pressure 1004 hPa
Visibility: 14.5 km
Clear sky

METAR: CYPL 011900Z AUTO 16009G18KT 9SM CLR M04/M09 A2964 RMK SLP071

Time: 14:06 (20:06 UTC)

Forecast

The report was made 22 minutes ago, at 19:44 UTC
Forecast valid from 01 at 20 UTC to 02 at 08 UTC
Wind 8 kt from the Southeast
Visibility: 10 km
Broken clouds at a height of 10000 ft
Becoming
from 02 at 03 UTC to 02 at 05 UTC
Wind 10 kt from the West
From 02 at 0500 UTC
Wind 10 kt from the West
Visibility: 10 km
Scattered clouds at a height of 900 ft
Broken clouds at a height of 1500 ft

TAF: CYPL 011944Z 0120/0208 13008KT P6SM BKN100 BECMG 0203/0205 26010KT FM020500 26010KT P6SM SCT009 BKN015 RMK FCST BASED ON AUTO OBS. NXT FCST BY 020200Z

Weather observations and forecasts of more than 4000 airports (METAR and TAF reports).

The available stations are represented by yellow and red dots on the map.

Hover mouse over dot to see the name of the station.

Then click to see weather observations and forecasts.

To change the map : click on the green buttons with a black cross to zoom in, on the green button with a dash to zoom out, or on the green arrows for adjacent maps.


METAR-TAF: